createdAt,value
2018-08-27T00:00:24.329Z,1010.15
2018-08-27T00:01:04.914Z,1010.15
2018-08-27T00:01:45.450Z,1010.16
2018-08-27T00:02:26.018Z,1010.13
2018-08-27T00:03:06.581Z,1010.15
2018-08-27T00:03:47.160Z,1010.12
2018-08-27T00:04:27.691Z,1010.14
2018-08-27T00:05:08.245Z,1010.13
2018-08-27T00:05:48.803Z,1010.13
2018-08-27T00:06:29.372Z,1010.15
2018-08-27T00:07:09.978Z,1010.11
2018-08-27T00:07:50.562Z,1010.09
2018-08-27T00:08:31.127Z,1010.13
2018-08-27T00:09:11.733Z,1010.12
2018-08-27T00:09:52.295Z,1010.09
2018-08-27T00:10:32.854Z,1010.1
2018-08-27T00:11:13.417Z,1010.09
2018-08-27T00:11:54.067Z,1010.07
2018-08-27T00:12:34.625Z,1010.08
2018-08-27T00:13:15.207Z,1010.08
2018-08-27T00:13:55.767Z,1010.1
2018-08-27T00:14:36.324Z,1010.08
2018-08-27T00:15:16.885Z,1010.07
2018-08-27T00:15:57.459Z,1010.07
2018-08-27T00:16:38.047Z,1010.09
2018-08-27T00:17:18.613Z,1010.09
2018-08-27T00:17:59.169Z,1010.1
2018-08-27T00:18:39.744Z,1010.08
2018-08-27T00:19:20.330Z,1010.05
2018-08-27T00:20:00.907Z,1010.03
2018-08-27T00:20:41.481Z,1010
2018-08-27T00:21:22.044Z,1010.04
2018-08-27T00:22:02.616Z,1010
2018-08-27T00:22:43.214Z,1009.98
2018-08-27T00:23:23.788Z,1010.01
2018-08-27T00:24:04.339Z,1009.97
2018-08-27T00:24:44.912Z,1009.93
2018-08-27T00:25:25.530Z,1009.94
2018-08-27T00:26:06.058Z,1009.95
2018-08-27T00:26:46.668Z,1009.96
2018-08-27T00:27:27.234Z,1009.95
2018-08-27T00:28:07.793Z,1009.96
2018-08-27T00:28:48.363Z,1009.96
2018-08-27T00:29:28.931Z,1009.96
2018-08-27T00:30:09.485Z,1009.99
2018-08-27T00:30:50.045Z,1009.97
2018-08-27T00:31:30.608Z,1009.96
2018-08-27T00:32:11.177Z,1009.98
2018-08-27T00:32:51.739Z,1009.98
2018-08-27T00:33:32.309Z,1009.98
2018-08-27T00:34:12.873Z,1009.95
2018-08-27T00:34:53.439Z,1009.97
2018-08-27T00:35:33.993Z,1009.97
2018-08-27T00:36:14.558Z,1009.94
2018-08-27T00:36:55.128Z,1009.96
2018-08-27T00:37:35.700Z,1009.96
2018-08-27T00:38:16.317Z,1009.95
2018-08-27T00:38:56.878Z,1009.97
2018-08-27T00:39:37.487Z,1009.99
2018-08-27T00:40:18.066Z,1009.96
2018-08-27T00:40:58.627Z,1009.97
2018-08-27T00:41:39.225Z,1009.99
2018-08-27T00:42:19.777Z,1010.01
2018-08-27T00:43:00.355Z,1009.95
2018-08-27T00:43:40.906Z,1009.98
2018-08-27T00:44:21.461Z,1009.94
2018-08-27T00:45:02.090Z,1009.97
2018-08-27T00:45:42.590Z,1009.97
2018-08-27T00:46:23.147Z,1009.95
2018-08-27T00:47:03.710Z,1009.96
2018-08-27T00:47:44.279Z,1009.95
2018-08-27T00:48:24.836Z,1009.93
2018-08-27T00:49:05.472Z,1009.94
2018-08-27T00:49:46.042Z,1009.96
2018-08-27T00:50:26.605Z,1009.95
2018-08-27T00:51:07.169Z,1009.91
2018-08-27T00:51:47.724Z,1009.93
2018-08-27T00:52:28.279Z,1009.95
2018-08-27T00:53:08.865Z,1009.93
2018-08-27T00:53:49.436Z,1009.93
2018-08-27T00:54:30.001Z,1009.95
2018-08-27T00:55:10.567Z,1009.93
2018-08-27T00:55:51.126Z,1009.93
2018-08-27T00:56:31.701Z,1009.95
2018-08-27T00:57:12.276Z,1009.96
2018-08-27T00:57:52.843Z,1009.9
2018-08-27T00:58:33.387Z,1009.96
2018-08-27T00:59:13.947Z,1009.94
2018-08-27T00:59:54.525Z,1009.94
2018-08-27T01:00:35.091Z,1009.93
2018-08-27T01:01:15.654Z,1009.93
2018-08-27T01:01:56.224Z,1009.92
2018-08-27T01:02:36.788Z,1009.92
2018-08-27T01:03:17.349Z,1009.89
2018-08-27T01:03:57.905Z,1009.85
2018-08-27T01:04:38.466Z,1009.83
2018-08-27T01:05:19.034Z,1009.82
2018-08-27T01:05:59.594Z,1009.83
2018-08-27T01:06:40.164Z,1009.82
2018-08-27T01:07:20.720Z,1009.8
2018-08-27T01:08:01.285Z,1009.76
2018-08-27T01:08:41.835Z,1009.77
2018-08-27T01:09:22.401Z,1009.75
2018-08-27T01:10:02.958Z,1009.76
2018-08-27T01:10:43.535Z,1009.78
2018-08-27T01:11:24.105Z,1009.77
2018-08-27T01:12:04.717Z,1009.71
2018-08-27T01:12:45.284Z,1009.71
2018-08-27T01:13:25.850Z,1009.69
2018-08-27T01:14:06.428Z,1009.68
2018-08-27T01:14:46.991Z,1009.69
2018-08-27T01:15:27.568Z,1009.7
2018-08-27T01:16:08.131Z,1009.67
2018-08-27T01:16:48.686Z,1009.71
2018-08-27T01:17:29.247Z,1009.68
2018-08-27T01:18:09.815Z,1009.7
2018-08-27T01:18:50.372Z,1009.68
2018-08-27T01:19:30.941Z,1009.65
2018-08-27T01:20:11.506Z,1009.66
2018-08-27T01:20:52.070Z,1009.65
2018-08-27T01:21:32.636Z,1009.68
2018-08-27T01:22:13.213Z,1009.67
2018-08-27T01:22:53.772Z,1009.68
2018-08-27T01:23:34.338Z,1009.68
2018-08-27T01:24:14.900Z,1009.69
2018-08-27T01:24:55.462Z,1009.68
2018-08-27T01:25:36.026Z,1009.66
2018-08-27T01:26:16.637Z,1009.66
2018-08-27T01:26:57.200Z,1009.68
2018-08-27T01:27:37.764Z,1009.69
2018-08-27T01:28:18.352Z,1009.68
2018-08-27T01:28:58.912Z,1009.7
2018-08-27T01:29:39.476Z,1009.65
2018-08-27T01:30:20.035Z,1009.65
2018-08-27T01:31:00.606Z,1009.63
2018-08-27T01:31:41.163Z,1009.65
2018-08-27T01:32:21.739Z,1009.61
2018-08-27T01:33:02.314Z,1009.64
2018-08-27T01:33:42.887Z,1009.6
2018-08-27T01:34:23.474Z,1009.6
2018-08-27T01:35:04.029Z,1009.55
2018-08-27T01:35:44.591Z,1009.54
2018-08-27T01:36:25.164Z,1009.51
2018-08-27T01:37:05.734Z,1009.53
2018-08-27T01:37:46.290Z,1009.54
2018-08-27T01:38:26.856Z,1009.52
2018-08-27T01:39:07.423Z,1009.56
2018-08-27T01:39:48.027Z,1009.55
2018-08-27T01:40:28.596Z,1009.54
2018-08-27T01:41:09.154Z,1009.52
2018-08-27T01:41:49.719Z,1009.49
2018-08-27T01:42:30.284Z,1009.5
2018-08-27T01:43:10.850Z,1009.52
2018-08-27T01:43:51.417Z,1009.49
2018-08-27T01:44:31.979Z,1009.5
2018-08-27T01:45:12.548Z,1009.51
2018-08-27T01:45:53.107Z,1009.51
2018-08-27T01:46:33.665Z,1009.52
2018-08-27T01:47:14.226Z,1009.51
2018-08-27T01:47:54.782Z,1009.49
2018-08-27T01:48:35.346Z,1009.51
2018-08-27T01:49:15.897Z,1009.53
2018-08-27T01:49:56.453Z,1009.46
2018-08-27T01:50:37.015Z,1009.5
2018-08-27T01:51:17.569Z,1009.52
2018-08-27T01:51:58.147Z,1009.48
2018-08-27T01:52:38.716Z,1009.49
2018-08-27T01:53:19.291Z,1009.51
2018-08-27T01:53:59.850Z,1009.51
2018-08-27T01:54:40.413Z,1009.52
2018-08-27T01:55:20.980Z,1009.47
2018-08-27T01:56:01.528Z,1009.5
2018-08-27T01:56:42.101Z,1009.52
2018-08-27T01:57:22.661Z,1009.48
2018-08-27T01:58:03.222Z,1009.52
2018-08-27T01:58:43.787Z,1009.47
2018-08-27T01:59:24.337Z,1009.51
2018-08-27T02:00:04.924Z,1009.53
2018-08-27T02:00:45.489Z,1009.55
2018-08-27T02:01:26.062Z,1009.54
2018-08-27T02:02:06.630Z,1009.53
2018-08-27T02:02:47.196Z,1009.53
2018-08-27T02:03:27.762Z,1009.48
2018-08-27T02:04:08.316Z,1009.5
2018-08-27T02:04:48.883Z,1009.53
2018-08-27T02:05:29.450Z,1009.52
2018-08-27T02:06:10.020Z,1009.52
2018-08-27T02:06:50.591Z,1009.53
2018-08-27T02:07:31.133Z,1009.53
2018-08-27T02:08:11.696Z,1009.53
2018-08-27T02:08:52.266Z,1009.47
2018-08-27T02:09:32.827Z,1009.47
2018-08-27T02:10:13.392Z,1009.46
2018-08-27T02:10:53.945Z,1009.45
2018-08-27T02:11:34.514Z,1009.42
2018-08-27T02:12:15.076Z,1009.43
2018-08-27T02:12:55.639Z,1009.45
2018-08-27T02:13:36.205Z,1009.4
2018-08-27T02:14:16.783Z,1009.38
2018-08-27T02:14:57.349Z,1009.38
2018-08-27T02:15:37.900Z,1009.39
2018-08-27T02:16:18.467Z,1009.37
2018-08-27T02:16:59.034Z,1009.37
2018-08-27T02:17:39.594Z,1009.36
2018-08-27T02:18:20.186Z,1009.36
2018-08-27T02:19:00.749Z,1009.36
2018-08-27T02:19:41.311Z,1009.36
2018-08-27T02:20:21.869Z,1009.38
2018-08-27T02:21:02.510Z,1009.4
2018-08-27T02:21:42.993Z,1009.39
2018-08-27T02:22:23.556Z,1009.39
2018-08-27T02:23:04.122Z,1009.43
2018-08-27T02:23:44.683Z,1009.37
2018-08-27T02:24:25.249Z,1009.44
2018-08-27T02:25:05.812Z,1009.42
2018-08-27T02:25:46.429Z,1009.42
2018-08-27T02:26:26.950Z,1009.39
2018-08-27T02:27:07.510Z,1009.38
2018-08-27T02:27:48.073Z,1009.4
2018-08-27T02:28:28.641Z,1009.37
2018-08-27T02:29:09.210Z,1009.35
2018-08-27T02:29:49.779Z,1009.33
2018-08-27T02:30:30.332Z,1009.35
2018-08-27T02:31:10.897Z,1009.37
2018-08-27T02:31:51.475Z,1009.33
2018-08-27T02:32:32.034Z,1009.34
2018-08-27T02:33:12.584Z,1009.34
2018-08-27T02:33:53.216Z,1009.33
2018-08-27T02:34:33.778Z,1009.35
2018-08-27T02:35:14.398Z,1009.35
2018-08-27T02:35:54.901Z,1009.32
2018-08-27T02:36:35.482Z,1009.34
2018-08-27T02:37:16.032Z,1009.31
2018-08-27T02:37:56.595Z,1009.33
2018-08-27T02:38:37.148Z,1009.28
2018-08-27T02:39:17.751Z,1009.26
2018-08-27T02:39:58.315Z,1009.29
2018-08-27T02:40:38.883Z,1009.26
2018-08-27T02:41:19.443Z,1009.26
2018-08-27T02:42:00.010Z,1009.21
2018-08-27T02:42:40.572Z,1009.2
2018-08-27T02:43:21.151Z,1009.2
2018-08-27T02:44:01.703Z,1009.19
2018-08-27T02:44:42.258Z,1009.18
2018-08-27T02:45:22.814Z,1009.17
2018-08-27T02:46:03.362Z,1009.16
2018-08-27T02:46:43.939Z,1009.21
2018-08-27T02:47:24.497Z,1009.21
2018-08-27T02:48:05.108Z,1009.18
2018-08-27T02:48:45.665Z,1009.2
2018-08-27T02:49:26.270Z,1009.16
2018-08-27T02:50:06.842Z,1009.17
2018-08-27T02:50:47.396Z,1009.14
2018-08-27T02:51:27.960Z,1009.15
2018-08-27T02:52:08.548Z,1009.11
2018-08-27T02:52:49.167Z,1009.16
2018-08-27T02:53:29.728Z,1009.12
2018-08-27T02:54:10.309Z,1009.08
2018-08-27T02:54:50.901Z,1009.09
2018-08-27T02:55:31.471Z,1009.07
2018-08-27T02:56:12.028Z,1009.1
2018-08-27T02:56:52.647Z,1009.03
2018-08-27T02:57:33.217Z,1009.08
2018-08-27T02:58:13.755Z,1009.05
2018-08-27T02:58:54.325Z,1009.09
2018-08-27T02:59:34.893Z,1009.07
2018-08-27T03:00:15.448Z,1009.08
2018-08-27T03:00:56.017Z,1009.07
2018-08-27T03:01:36.582Z,1009.06
2018-08-27T03:02:17.163Z,1009.01
2018-08-27T03:02:57.743Z,1009.02
2018-08-27T03:03:38.281Z,1008.97
2018-08-27T03:04:18.855Z,1008.96
2018-08-27T03:04:59.409Z,1008.96
2018-08-27T03:05:39.966Z,1008.98
2018-08-27T03:06:20.552Z,1008.94
2018-08-27T03:07:01.121Z,1008.98
2018-08-27T03:07:41.682Z,1008.98
2018-08-27T03:08:22.259Z,1008.95
2018-08-27T03:09:02.832Z,1008.94
2018-08-27T03:09:43.405Z,1008.95
2018-08-27T03:10:23.969Z,1008.96
2018-08-27T03:11:04.533Z,1009
2018-08-27T03:11:45.094Z,1008.94
2018-08-27T03:12:25.645Z,1008.95
2018-08-27T03:13:06.231Z,1008.91
2018-08-27T03:13:46.787Z,1008.9
2018-08-27T03:14:27.387Z,1008.89
2018-08-27T03:15:07.928Z,1008.9
2018-08-27T03:15:48.499Z,1008.91
2018-08-27T03:16:29.056Z,1008.87
2018-08-27T03:17:09.626Z,1008.91
2018-08-27T03:17:50.193Z,1008.86
2018-08-27T03:18:30.811Z,1008.9
2018-08-27T03:19:11.320Z,1008.88
2018-08-27T03:19:51.882Z,1008.9
2018-08-27T03:20:32.478Z,1008.9
2018-08-27T03:21:13.009Z,1008.9
2018-08-27T03:21:53.565Z,1008.89
2018-08-27T03:22:34.116Z,1008.89
2018-08-27T03:23:14.735Z,1008.88
2018-08-27T03:23:55.300Z,1008.86
2018-08-27T03:24:35.897Z,1008.81
2018-08-27T03:25:16.510Z,1008.85
2018-08-27T03:25:57.079Z,1008.83
2018-08-27T03:26:37.622Z,1008.81
2018-08-27T03:27:18.183Z,1008.81
2018-08-27T03:27:58.759Z,1008.83
2018-08-27T03:28:39.383Z,1008.83
2018-08-27T03:29:19.961Z,1008.81
2018-08-27T03:30:00.582Z,1008.84
2018-08-27T03:30:41.129Z,1008.84
2018-08-27T03:31:21.692Z,1008.82
2018-08-27T03:32:02.229Z,1008.85
2018-08-27T03:32:42.784Z,1008.81
2018-08-27T03:33:23.407Z,1008.79
2018-08-27T03:34:03.986Z,1008.78
2018-08-27T03:34:44.566Z,1008.81
2018-08-27T03:35:25.154Z,1008.77
2018-08-27T03:36:05.686Z,1008.79
2018-08-27T03:36:46.255Z,1008.78
2018-08-27T03:37:26.820Z,1008.77
2018-08-27T03:38:07.387Z,1008.75
2018-08-27T03:38:47.941Z,1008.73
2018-08-27T03:39:28.499Z,1008.78
2018-08-27T03:40:09.057Z,1008.78
2018-08-27T03:40:49.723Z,1008.8
2018-08-27T03:41:30.247Z,1008.75
2018-08-27T03:42:10.792Z,1008.74
2018-08-27T03:42:51.351Z,1008.75
2018-08-27T03:43:31.932Z,1008.7
2018-08-27T03:44:12.472Z,1008.73
2018-08-27T03:44:53.031Z,1008.77
2018-08-27T03:45:33.596Z,1008.76
2018-08-27T03:46:14.171Z,1008.78
2018-08-27T03:46:54.728Z,1008.75
2018-08-27T03:47:35.272Z,1008.69
2018-08-27T03:48:15.829Z,1008.71
2018-08-27T03:48:56.411Z,1008.72
2018-08-27T03:49:36.954Z,1008.72
2018-08-27T03:50:17.514Z,1008.68
2018-08-27T03:50:58.092Z,1008.69
2018-08-27T03:51:38.659Z,1008.72
2018-08-27T03:52:19.223Z,1008.68
2018-08-27T03:52:59.801Z,1008.71
2018-08-27T03:53:40.346Z,1008.71
2018-08-27T03:54:20.905Z,1008.72
2018-08-27T03:55:01.483Z,1008.73
2018-08-27T03:55:42.073Z,1008.7
2018-08-27T03:56:22.653Z,1008.75
2018-08-27T03:57:03.224Z,1008.73
2018-08-27T03:57:43.766Z,1008.77
2018-08-27T03:58:24.342Z,1008.75
2018-08-27T03:59:04.906Z,1008.77
2018-08-27T03:59:45.467Z,1008.8
2018-08-27T04:00:26.038Z,1008.78
2018-08-27T04:01:06.612Z,1008.8
2018-08-27T04:01:47.185Z,1008.82
2018-08-27T04:02:27.723Z,1008.82
2018-08-27T04:03:08.285Z,1008.78
2018-08-27T04:03:48.834Z,1008.78
2018-08-27T04:04:29.397Z,1008.8
2018-08-27T04:05:09.979Z,1008.82
2018-08-27T04:05:50.544Z,1008.78
2018-08-27T04:06:31.102Z,1008.82
2018-08-27T04:07:11.670Z,1008.83
2018-08-27T04:07:52.225Z,1008.86
2018-08-27T04:08:32.794Z,1008.86
2018-08-27T04:09:13.366Z,1008.83
2018-08-27T04:09:53.918Z,1008.81
2018-08-27T04:10:34.476Z,1008.81
2018-08-27T04:11:15.038Z,1008.8
2018-08-27T04:11:55.605Z,1008.86
2018-08-27T04:12:36.168Z,1008.78
2018-08-27T04:13:16.725Z,1008.81
2018-08-27T04:13:57.285Z,1008.81
2018-08-27T04:14:37.841Z,1008.77
2018-08-27T04:15:18.406Z,1008.76
2018-08-27T04:15:58.964Z,1008.8
2018-08-27T04:16:39.519Z,1008.78
2018-08-27T04:17:20.093Z,1008.74
2018-08-27T04:18:00.640Z,1008.76
2018-08-27T04:18:41.201Z,1008.74
2018-08-27T04:19:21.763Z,1008.7
2018-08-27T04:20:02.347Z,1008.73
2018-08-27T04:20:42.912Z,1008.72
2018-08-27T04:21:23.485Z,1008.74
2018-08-27T04:22:04.046Z,1008.71
2018-08-27T04:22:44.640Z,1008.7
2018-08-27T04:23:25.263Z,1008.72
2018-08-27T04:24:05.804Z,1008.73
2018-08-27T04:24:46.397Z,1008.66
2018-08-27T04:25:26.961Z,1008.67
2018-08-27T04:26:07.502Z,1008.71
2018-08-27T04:26:48.061Z,1008.7
2018-08-27T04:27:28.631Z,1008.7
2018-08-27T04:28:09.236Z,1008.73
2018-08-27T04:28:49.888Z,1008.72
2018-08-27T04:29:30.361Z,1008.7
2018-08-27T04:30:10.968Z,1008.7
2018-08-27T04:30:51.530Z,1008.76
2018-08-27T04:31:32.059Z,1008.74
2018-08-27T04:32:12.608Z,1008.75
2018-08-27T04:32:53.241Z,1008.71
2018-08-27T04:33:33.742Z,1008.69
2018-08-27T04:34:14.324Z,1008.72
2018-08-27T04:34:54.971Z,1008.7
2018-08-27T04:35:35.451Z,1008.67
2018-08-27T04:36:16.018Z,1008.7
2018-08-27T04:36:56.564Z,1008.67
2018-08-27T04:37:37.141Z,1008.7
2018-08-27T04:38:17.738Z,1008.7
2018-08-27T04:38:58.322Z,1008.72
2018-08-27T04:39:38.882Z,1008.72
2018-08-27T04:40:19.442Z,1008.74
2018-08-27T04:41:00.004Z,1008.7
2018-08-27T04:41:40.583Z,1008.73
2018-08-27T04:42:21.140Z,1008.7
2018-08-27T04:43:01.726Z,1008.74
2018-08-27T04:43:42.271Z,1008.71
2018-08-27T04:44:22.832Z,1008.73
2018-08-27T04:45:03.392Z,1008.71
2018-08-27T04:45:43.956Z,1008.67
2018-08-27T04:46:24.521Z,1008.7
2018-08-27T04:47:05.142Z,1008.68
2018-08-27T04:47:45.658Z,1008.67
2018-08-27T04:48:26.215Z,1008.75
2018-08-27T04:49:06.793Z,1008.73
2018-08-27T04:49:47.397Z,1008.72
2018-08-27T04:50:27.968Z,1008.71
2018-08-27T04:51:08.528Z,1008.69
2018-08-27T04:51:49.089Z,1008.69
2018-08-27T04:52:29.652Z,1008.69
2018-08-27T04:53:10.211Z,1008.67
2018-08-27T04:53:50.788Z,1008.64
2018-08-27T04:54:31.336Z,1008.67
2018-08-27T04:55:11.907Z,1008.64
2018-08-27T04:55:52.466Z,1008.59
2018-08-27T04:56:33.019Z,1008.62
2018-08-27T04:57:13.599Z,1008.63
2018-08-27T04:57:54.153Z,1008.61
2018-08-27T04:58:34.753Z,1008.6
2018-08-27T04:59:15.330Z,1008.59
2018-08-27T04:59:55.886Z,1008.57
2018-08-27T05:00:36.433Z,1008.57
2018-08-27T05:01:16.994Z,1008.56
2018-08-27T05:01:57.569Z,1008.55
2018-08-27T05:02:38.122Z,1008.55
2018-08-27T05:03:18.683Z,1008.52
2018-08-27T05:03:59.282Z,1008.55
2018-08-27T05:04:39.859Z,1008.54
2018-08-27T05:05:20.423Z,1008.53
2018-08-27T05:06:00.988Z,1008.5
2018-08-27T05:06:41.549Z,1008.53
2018-08-27T05:07:22.119Z,1008.47
2018-08-27T05:08:02.680Z,1008.48
2018-08-27T05:08:43.244Z,1008.49
2018-08-27T05:09:23.812Z,1008.44
2018-08-27T05:10:04.385Z,1008.42
2018-08-27T05:10:44.940Z,1008.48
2018-08-27T05:11:25.500Z,1008.48
2018-08-27T05:12:06.054Z,1008.46
2018-08-27T05:12:46.653Z,1008.49
2018-08-27T05:13:27.249Z,1008.51
2018-08-27T05:14:07.829Z,1008.45
2018-08-27T05:14:48.385Z,1008.47
2018-08-27T05:15:28.962Z,1008.53
2018-08-27T05:16:09.550Z,1008.46
2018-08-27T05:16:50.120Z,1008.46
2018-08-27T05:17:30.680Z,1008.48
2018-08-27T05:18:11.337Z,1008.45
2018-08-27T05:18:51.901Z,1008.5
2018-08-27T05:19:32.463Z,1008.5
2018-08-27T05:20:13.029Z,1008.45
2018-08-27T05:20:53.598Z,1008.49
2018-08-27T05:21:34.172Z,1008.48
2018-08-27T05:22:14.731Z,1008.49
2018-08-27T05:22:55.293Z,1008.46
2018-08-27T05:23:35.860Z,1008.39
2018-08-27T05:24:16.428Z,1008.45
2018-08-27T05:24:56.991Z,1008.41
2018-08-27T05:25:37.557Z,1008.44
2018-08-27T05:26:18.139Z,1008.43
2018-08-27T05:26:58.734Z,1008.41
2018-08-27T05:27:39.298Z,1008.42
2018-08-27T05:28:19.872Z,1008.42
2018-08-27T05:29:00.433Z,1008.42
2018-08-27T05:29:40.982Z,1008.41
2018-08-27T05:30:21.557Z,1008.41
2018-08-27T05:31:02.178Z,1008.42
2018-08-27T05:31:42.681Z,1008.39
2018-08-27T05:32:23.338Z,1008.37
2018-08-27T05:33:03.824Z,1008.34
2018-08-27T05:33:44.393Z,1008.35
2018-08-27T05:34:24.952Z,1008.29
2018-08-27T05:35:05.510Z,1008.25
2018-08-27T05:35:46.286Z,1008.28
2018-08-27T05:36:26.835Z,1008.24
2018-08-27T05:37:07.402Z,1008.25
2018-08-27T05:37:47.994Z,1008.25
2018-08-27T05:38:28.622Z,1008.23
2018-08-27T05:39:09.199Z,1008.21
2018-08-27T05:39:49.768Z,1008.22
2018-08-27T05:40:30.353Z,1008.2
2018-08-27T05:41:10.908Z,1008.21
2018-08-27T05:41:51.470Z,1008.16
2018-08-27T05:42:32.428Z,1008.2
2018-08-27T05:43:13.009Z,1008.16
2018-08-27T05:43:54.542Z,1008.15
2018-08-27T05:44:35.294Z,1008.21
2018-08-27T05:45:15.979Z,1008.18
2018-08-27T05:45:56.546Z,1008.18
2018-08-27T05:46:38.214Z,1008.12
2018-08-27T05:47:19.571Z,1008.13
2018-08-27T05:48:00.131Z,1008.12
2018-08-27T05:48:40.738Z,1008.08
2018-08-27T05:49:21.853Z,1008.12
2018-08-27T05:50:03.362Z,1008.09
2018-08-27T05:50:43.909Z,1008.1
2018-08-27T05:51:24.559Z,1008.11
2018-08-27T05:52:05.214Z,1008.14
2018-08-27T05:52:45.778Z,1008.15
2018-08-27T05:53:26.787Z,1008.2
2018-08-27T05:54:08.604Z,1008.14
2018-08-27T05:54:49.186Z,1008.18
2018-08-27T05:55:29.781Z,1008.15
2018-08-27T05:56:10.416Z,1008.17
2018-08-27T05:56:51.004Z,1008.14
2018-08-27T05:57:31.563Z,1008.16
2018-08-27T05:58:12.128Z,1008.17
2018-08-27T05:58:52.733Z,1008.17
2018-08-27T05:59:33.385Z,1008.15
2018-08-27T06:00:14.246Z,1008.17
2018-08-27T06:00:54.874Z,1008.15
2018-08-27T06:01:35.507Z,1008.19
2018-08-27T06:02:15.991Z,1008.18
2018-08-27T06:02:56.568Z,1008.12
2018-08-27T06:03:37.135Z,1008.18
2018-08-27T06:04:17.692Z,1008.12
2018-08-27T06:04:58.339Z,1008.1
2018-08-27T06:05:38.891Z,1008.07
2018-08-27T06:06:19.452Z,1008.06
2018-08-27T06:07:00.013Z,1008.09
2018-08-27T06:07:40.586Z,1008.07
2018-08-27T06:08:21.167Z,1008.06
2018-08-27T06:09:01.825Z,1008.05
2018-08-27T06:09:42.394Z,1008.07
2018-08-27T06:10:22.907Z,1008.05
2018-08-27T06:11:03.534Z,1008.05
2018-08-27T06:11:44.053Z,1008.07
2018-08-27T06:12:24.655Z,1008.04
2018-08-27T06:13:05.220Z,1008.07
2018-08-27T06:13:45.821Z,1007.99
2018-08-27T06:14:26.382Z,1007.97
2018-08-27T06:15:06.945Z,1007.97
2018-08-27T06:15:47.505Z,1007.99
2018-08-27T06:16:28.076Z,1007.98
2018-08-27T06:17:09.010Z,1007.91
2018-08-27T06:17:49.462Z,1007.94
2018-08-27T06:18:30.043Z,1007.93
2018-08-27T06:19:10.595Z,1007.9
2018-08-27T06:19:51.183Z,1007.94
2018-08-27T06:20:31.756Z,1007.91
2018-08-27T06:21:12.367Z,1007.96
2018-08-27T06:21:52.998Z,1007.94
2018-08-27T06:22:33.581Z,1007.93
2018-08-27T06:23:14.275Z,1007.93
2018-08-27T06:23:54.877Z,1007.93
2018-08-27T06:24:35.658Z,1007.89
2018-08-27T06:25:16.344Z,1007.9
2018-08-27T06:25:56.905Z,1007.88
2018-08-27T06:26:37.475Z,1007.86
2018-08-27T06:27:18.223Z,1007.88
2018-08-27T06:27:58.796Z,1007.9
2018-08-27T06:28:39.347Z,1008
2018-08-27T06:29:19.905Z,1008
2018-08-27T06:30:00.514Z,1007.99
2018-08-27T06:30:41.068Z,1007.92
2018-08-27T06:31:21.631Z,1007.94
2018-08-27T06:32:02.194Z,1007.9
2018-08-27T06:32:42.768Z,1007.94
2018-08-27T06:33:23.344Z,1007.87
2018-08-27T06:34:03.921Z,1007.9
2018-08-27T06:34:44.476Z,1007.89
2018-08-27T06:35:25.220Z,1007.93
2018-08-27T06:36:05.827Z,1007.86
2018-08-27T06:36:46.399Z,1007.88
2018-08-27T06:37:27.013Z,1007.82
2018-08-27T06:38:07.771Z,1007.91
2018-08-27T06:38:48.427Z,1007.92
2018-08-27T06:39:29.008Z,1007.89
2018-08-27T06:40:09.563Z,1007.86
2018-08-27T06:40:50.156Z,1007.89
2018-08-27T06:41:30.725Z,1007.87
2018-08-27T06:42:11.451Z,1007.83
2018-08-27T06:42:52.030Z,1007.82
2018-08-27T06:43:32.910Z,1007.8
2018-08-27T06:44:13.609Z,1007.82
2018-08-27T06:44:54.198Z,1007.81
2018-08-27T06:45:34.964Z,1007.76
2018-08-27T06:46:16.141Z,1007.79
2018-08-27T06:46:56.697Z,1007.75
2018-08-27T06:47:37.318Z,1007.74
2018-08-27T06:48:17.919Z,1007.71
2018-08-27T06:48:58.491Z,1007.71
2018-08-27T06:49:39.061Z,1007.69
2018-08-27T06:50:19.667Z,1007.71
2018-08-27T06:51:00.318Z,1007.67
2018-08-27T06:51:40.898Z,1007.66
2018-08-27T06:52:21.523Z,1007.64
2018-08-27T06:53:02.193Z,1007.65
2018-08-27T06:53:42.760Z,1007.63
2018-08-27T06:54:23.356Z,1007.65
2018-08-27T06:55:04.041Z,1007.57
2018-08-27T06:55:45.209Z,1007.67
2018-08-27T06:56:25.549Z,1007.62
2018-08-27T06:57:07.067Z,1007.58
2018-08-27T06:57:48.560Z,1007.61
2018-08-27T06:58:29.311Z,1007.61
2018-08-27T06:59:10.061Z,1007.63
2018-08-27T06:59:50.662Z,1007.65
2018-08-27T07:00:31.224Z,1007.67
2018-08-27T07:01:11.816Z,1007.65
2018-08-27T07:01:52.471Z,1007.63
2018-08-27T07:02:33.069Z,1007.62
2018-08-27T07:03:13.646Z,1007.64
2018-08-27T07:03:54.218Z,1007.61
2018-08-27T07:04:34.850Z,1007.63
2018-08-27T07:05:15.419Z,1007.58
2018-08-27T07:05:55.987Z,1007.54
2018-08-27T07:06:36.627Z,1007.57
2018-08-27T07:07:17.228Z,1007.56
2018-08-27T07:07:57.791Z,1007.52
2018-08-27T07:08:38.466Z,1007.53
2018-08-27T07:09:19.041Z,1007.53
2018-08-27T07:09:59.633Z,1007.55
2018-08-27T07:10:40.202Z,1007.59
2018-08-27T07:11:20.772Z,1007.61
2018-08-27T07:12:01.327Z,1007.55
2018-08-27T07:12:41.904Z,1007.55
2018-08-27T07:13:22.493Z,1007.58
2018-08-27T07:14:03.109Z,1007.58
2018-08-27T07:14:43.684Z,1007.58
2018-08-27T07:15:24.298Z,1007.59
2018-08-27T07:16:05.003Z,1007.62
2018-08-27T07:16:45.606Z,1007.55
2018-08-27T07:17:26.171Z,1007.55
2018-08-27T07:18:06.752Z,1007.6
2018-08-27T07:18:47.332Z,1007.64
2018-08-27T07:19:27.911Z,1007.62
2018-08-27T07:20:08.596Z,1007.59
2018-08-27T07:20:49.106Z,1007.66
2018-08-27T07:21:29.675Z,1007.61
2018-08-27T07:22:10.256Z,1007.67
2018-08-27T07:22:50.799Z,1007.68
2018-08-27T07:23:31.366Z,1007.65
2018-08-27T07:24:11.908Z,1007.59
2018-08-27T07:24:52.477Z,1007.6
2018-08-27T07:25:33.036Z,1007.59
2018-08-27T07:26:13.624Z,1007.6
2018-08-27T07:26:54.201Z,1007.59
2018-08-27T07:27:34.848Z,1007.57
2018-08-27T07:28:15.352Z,1007.58
2018-08-27T07:28:55.978Z,1007.6
2018-08-27T07:29:36.543Z,1007.54
2018-08-27T07:30:17.098Z,1007.59
2018-08-27T07:30:57.717Z,1007.53
2018-08-27T07:31:38.281Z,1007.58
2018-08-27T07:32:18.849Z,1007.56
2018-08-27T07:32:59.457Z,1007.56
2018-08-27T07:33:40.015Z,1007.62
2018-08-27T07:34:20.572Z,1007.54
2018-08-27T07:35:01.167Z,1007.51
2018-08-27T07:35:41.738Z,1007.52
2018-08-27T07:36:22.364Z,1007.5
2018-08-27T07:37:02.879Z,1007.59
2018-08-27T07:37:43.454Z,1007.46
2018-08-27T07:38:24.022Z,1007.5
2018-08-27T07:39:04.599Z,1007.49
2018-08-27T07:39:45.159Z,1007.47
2018-08-27T07:40:25.722Z,1007.51
2018-08-27T07:41:06.283Z,1007.45
2018-08-27T07:41:46.844Z,1007.51
2018-08-27T07:42:27.431Z,1007.41
2018-08-27T07:43:07.996Z,1007.47
2018-08-27T07:43:48.553Z,1007.42
2018-08-27T07:44:29.158Z,1007.44
2018-08-27T07:45:09.732Z,1007.45
2018-08-27T07:45:50.385Z,1007.46
2018-08-27T07:46:31.060Z,1007.48
2018-08-27T07:47:11.652Z,1007.45
2018-08-27T07:47:52.213Z,1007.42
2018-08-27T07:48:32.791Z,1007.37
2018-08-27T07:49:13.369Z,1007.42
2018-08-27T07:49:53.936Z,1007.45
2018-08-27T07:50:34.527Z,1007.42
2018-08-27T07:51:15.212Z,1007.45
2018-08-27T07:51:55.697Z,1007.39
2018-08-27T07:52:36.623Z,1007.38
2018-08-27T07:53:17.395Z,1007.32
2018-08-27T07:53:58.540Z,1007.37
2018-08-27T07:54:39.108Z,1007.32
2018-08-27T07:55:19.665Z,1007.34
2018-08-27T07:56:00.237Z,1007.32
2018-08-27T07:56:40.830Z,1007.38
2018-08-27T07:57:21.416Z,1007.37
2018-08-27T07:58:01.992Z,1007.36
2018-08-27T07:58:42.548Z,1007.36
2018-08-27T07:59:23.130Z,1007.36
2018-08-27T08:00:03.696Z,1007.41
2018-08-27T08:00:44.276Z,1007.3
2018-08-27T08:01:24.841Z,1007.3
2018-08-27T08:02:06.219Z,1007.35
2018-08-27T08:02:48.691Z,1007.36
2018-08-27T08:03:28.709Z,1007.41
2018-08-27T08:04:09.295Z,1007.33
2018-08-27T08:04:49.936Z,1007.32
2018-08-27T08:05:30.495Z,1007.33
2018-08-27T08:06:11.170Z,1007.22
2018-08-27T08:06:51.950Z,1007.27
2018-08-27T08:07:32.532Z,1007.27
2018-08-27T08:08:13.194Z,1007.33
2018-08-27T08:08:53.828Z,1007.32
2018-08-27T08:09:35.497Z,1007.29
2018-08-27T08:10:16.230Z,1007.27
2018-08-27T08:10:56.920Z,1007.29
2018-08-27T08:11:37.547Z,1007.3
2018-08-27T08:12:18.142Z,1007.32
2018-08-27T08:12:58.720Z,1007.31